Sonic Adventure (DX): Time Rankings

Records: Times | Rings | Scores | Races | Bosses | Freestyle
Leaders: Times | Rings | Scores | Races | Bosses | Freestyle | Overall
Rank Player Percent Points Date
1 Gamepro011 99.6% 19 06-23-17
2 Sonicspeedruner 98.7% 70 06-23-17
3 Dashjump 95.2% 266 06-23-17
4 Jawzun 95.2% 267 06-23-17
5 DarkPolarNight 94.3% 318 06-23-17
6 drminus 92.2% 433 06-23-17
7 F-Man 92.0% 443 06-23-17
8 THC98 91.7% 463 06-23-17
9 ike6252 89.6% 576 06-23-17
10 Avento128bits 89.3% 596 06-23-17
11 francisco 89.0% 609 06-23-17
12 DarkspinesSonic 88.4% 642 06-23-17
13 Marth 88.3% 648 06-23-17
14 ethmar 88.3% 652 06-23-17
15 frankoredstrato 87.1% 719 06-23-17
16 chainchumper 85.0% 832 06-23-17
17 TheRealShadnic 84.7% 851 06-23-17
18 Paragod 84.3% 871 06-23-17
19 HyperSonic7701 84.1% 886 06-23-17
20 InferSaime 81.1% 1051 06-23-17
20 xXMegaManXx 81.1% 1051 06-23-17
22 Coolfansonic 80.8% 1068 06-23-17
23 Stefan 79.6% 1135 06-23-17
24 PfoSonic 79.2% 1159 06-23-17
25 bertin 77.3% 1262 06-23-17
26 yoshifan 76.8% 1291 06-23-17
27 Dave Cramer 75.2% 1381 06-23-17
28 RPGnutter 74.9% 1395 06-23-17
29 sonicam 73.4% 1484 06-23-17
30 Cybrax 73.1% 1500 06-23-17
31 Ring Rush 70.6% 1638 06-23-17
32 mike89 69.8% 1683 06-23-17
33 NintenDan 69.5% 1699 06-23-17
34 Nimrod 69.0% 1725 06-23-17
35 a_moustache 67.9% 1786 06-23-17
36 chaos shadow 66.3% 1876 06-23-17
37 SkyLights 66.0% 1894 06-23-17
38 Combo 64.6% 1973 06-23-17
39 SADXTryHard 62.4% 2095 06-23-17
40 P1 Pause 61.8% 2129 06-23-17
41 Groudon199 59.8% 2238 06-23-17
42 Shadow Jacky 59.2% 2276 06-23-17
43 Game_Complete 59.1% 2281 06-23-17
44 AxlThunder 58.5% 2314 06-23-17
45 VMU Player Banned 57.9% 2344 06-23-17
46 Thorn 57.9% 2347 06-23-17
47 SB737 56.8% 2408 06-23-17
48 The Knuckles Chao 56.8% 2409 06-23-17
49 Chao_Fan 56.4% 2427 06-23-17
50 SadisticMystic 56.3% 2435 06-23-17
51 Mastakirby 55.8% 2463 06-23-17
52 Parax 55.6% 2476 06-23-17
53 OmegaDJ 55.3% 2489 06-23-17
54 LittleBigness 55.0% 2507 06-23-17
55 KinkyCadence 55.0% 2509 06-23-17
56 mauserman 54.7% 2522 06-23-17
57 Auriman1 54.7% 2523 06-23-17
58 Psyknux 54.6% 2528 06-23-17
59 magnum12 54.5% 2533 06-23-17
60 Turbos 54.2% 2553 06-23-17
61 GerbilSoft 53.7% 2583 06-23-17
62 GreatStar 53.3% 2603 06-23-17
63 Webber3000 52.9% 2623 06-23-17
64 Hipertails12 51.5% 2705 06-23-17
65 James_Bertolli 49.7% 2802 06-23-17
66 Cream147 49.4% 2819 06-23-17
67 welldooder64 48.6% 2864 06-23-17
68 Skylace 48.5% 2871 06-23-17
69 Quartz 48.3% 2881 06-23-17
70 Psymar 48.0% 2898 06-23-17
71 Omega Rafael Santos 47.9% 2902 06-23-17
72 Diamond 47.8% 2911 06-23-17
73 teamblackarms 47.0% 2953 06-23-17
74 SonicWinDX 46.8% 2966 06-23-17
75 Andrea Ritsu 46.3% 2992 06-23-17
76 buddychaos0415 45.9% 3016 06-23-17
77 SilverSonic 45.2% 3055 06-23-17
78 SilvertheAlmighty 44.7% 3080 06-23-17
79 metanightmare22 44.2% 3113 06-23-17
80 itsPersonnal 44.0% 3119 06-23-17
81 WeegeeZV 44.0% 3121 06-23-17
82 lordmetalsonic 41.9% 3237 06-23-17
83 Arch 41.5% 3263 06-23-17
84 videogamemaster777 40.5% 3314 06-23-17
85 supersonicfan 40.2% 3333 06-23-17
86 Termon 40.2% 3334 06-23-17
87 LilZero 39.4% 3379 06-23-17
88 Drakodan 39.2% 3388 06-23-17
89 paulie9990 39.2% 3389 06-23-17
90 FuzZerd 39.0% 3403 06-23-17
90 Kanimayo_Jp 39.0% 3403 06-23-17
92 supersonic465 38.9% 3404 06-23-17
93 eggFL 38.5% 3427 06-23-17
94 BigAL49 38.3% 3440 06-23-17
95 danieldude 37.5% 3484 06-23-17
96 N 37.4% 3488 06-23-17
97 Don 37.2% 3502 06-23-17
98 Siavash Tazari 36.9% 3518 06-23-17
99 Fr3nZy 36.2% 3558 06-23-17
100 f0rever_zer0 35.9% 3574 06-23-17
101 Cyan Ryan 35.3% 3608 06-23-17
102 Cod4Scopes 35.1% 3617 06-23-17
103 LinksDarkArrows 34.9% 3629 06-23-17
104 Therio 34.1% 3675 06-23-17
105 elecmouse101 34.0% 3679 06-23-17
106 JamminX42 33.9% 3684 06-23-17
107 Austinf 33.8% 3690 06-23-17
108 Staf 33.8% 3691 06-23-17
109 MiStEr_ShAoLiN 33.5% 3710 06-23-17
110 Twilisailor 33.0% 3733 06-23-17
111 videogamer1014 32.6% 3755 06-23-17
112 BrokenArthritis 32.2% 3777 06-23-17
113 Xia 32.2% 3779 06-23-17
114 AC-Tygo 32.0% 3789 06-23-17
115 welshmoose05 31.7% 3805 06-23-17
116 OddCook 31.3% 3831 06-23-17
117 The Great Lord Mick 30.9% 3853 06-23-17
118 Aitamen 30.4% 3882 06-23-17
119 Matt_TY 30.0% 3903 06-23-17
119 Maxinfamily 30.0% 3903 06-23-17
121 Mcshuggets 29.9% 3908 06-23-17
122 dabestgamer 29.8% 3916 06-23-17
123 joecoolgames 29.3% 3944 06-23-17
124 SuperBlitzCraig 28.8% 3969 06-23-17
125 imazor017 28.6% 3978 06-23-17
126 Shadowthegreat 28.3% 3998 06-23-17
127 superjupi 28.2% 4001 06-23-17
128 SuperSonic101 28.0% 4014 06-23-17
129 Rolken 27.9% 4022 06-23-17
130 sonamyfan666 27.4% 4048 06-23-17
131 thewaytodawnnn 27.2% 4056 06-23-17
132 Spinballwizard 27.1% 4062 06-23-17
133 koinu93 27.1% 4064 06-23-17
134 Hunters13 26.9% 4075 06-23-17
134 iarebored 26.9% 4075 06-23-17
136 SonicKnuckles 26.9% 4077 06-23-17
137 SaviourDC 26.5% 4095 06-23-17
138 EngiNerd 26.0% 4128 06-23-17
139 adf 25.7% 4141 06-23-17
140 Megaman EXE565 25.0% 4179 06-23-17
141 The T 24.8% 4194 06-23-17
142 Sonic Singularity 24.2% 4226 06-23-17
143 Platformer 23.6% 4260 06-23-17
144 timpkmn89 23.5% 4266 06-23-17
145 Pokemonmaster888 23.4% 4269 06-23-17
145 SeaWolf 23.4% 4269 06-23-17
147 Swift Hobo 22.7% 4308 06-23-17
148 Sondow 22.7% 4310 06-23-17
149 KitsuneYamaro 22.1% 4344 06-23-17
150 Rickyman48 22.0% 4347 06-23-17
151 FoxBoy 21.8% 4360 06-23-17
152 Kogen Player Banned 21.2% 4391 06-23-17
153 TFEC Headshot 21.0% 4402 06-23-17
154 Jerzia 20.9% 4410 06-23-17
155 HyperSonic64 20.1% 4457 06-23-17
155 Starlight Sable 20.1% 4457 06-23-17
157 IsisDazs 19.6% 4482 06-23-17
158 andres430 19.4% 4492 06-23-17
159 crazy1993 19.4% 4494 06-23-17
160 Powerjohn25 19.3% 4497 06-23-17
161 SonicU260 18.5% 4543 06-23-17
162 MPit08 18.0% 4571 06-23-17
163 SonicAD 17.9% 4579 06-23-17
164 Swinkly 17.5% 4598 06-23-17
165 iSonicKid2K 17.4% 4603 06-23-17
166 dShadow 17.4% 4608 06-23-17
167 sonicd5 17.3% 4612 06-23-17
168 Cutiefox 16.8% 4639 06-23-17
169 Chawkk 16.6% 4648 06-23-17
170 Monkeh 16.4% 4660 06-23-17
171 Miles9999 16.1% 4679 06-23-17
172 DaDude 15.5% 4710 06-23-17
173 Drflash55 15.4% 4718 06-23-17
174 Bass 15.3% 4720 06-23-17
175 Cruizer 15.1% 4731 06-23-17
176 Destroyer121121 15.0% 4737 06-23-17
177 Badlex727 14.9% 4747 06-23-17
178 superiorsonic 14.8% 4752 06-23-17
179 neaolas 14.7% 4758 06-23-17
180 zapp 14.6% 4762 06-23-17
181 Yish 14.5% 4767 06-23-17
182 UninspiredUsername 14.3% 4780 06-23-17
183 Cooljay 13.9% 4798 06-23-17
184 gamefreak1292 13.9% 4799 06-23-17
185 Chaos_Overlord 13.1% 4847 06-23-17
186 GarnetPrincess 12.9% 4859 06-23-17
187 Valfore 12.5% 4880 06-23-17
188 soniccoloursunleashed 12.2% 4898 06-23-17
189 ShinigamiMachine 11.9% 4915 06-23-17
190 booo95 11.7% 4926 06-23-17
191 Sonicsuperstar1 11.5% 4937 06-23-17
192 SirTobbii 11.2% 4952 06-23-17
193 sonicspeed 11.2% 4953 06-23-17
194 FocusSight64 11.0% 4964 06-23-17
195 Werey 11.0% 4965 06-23-17
196 Mo Player Banned 10.8% 4971 06-23-17
197 Venick409 9.7% 5034 06-23-17
198 Sithwarrior26 9.7% 5036 06-23-17
199 nman36 9.6% 5038 06-23-17
200 ingx24 9.1% 5066 06-23-17
201 CyberShadow 9.1% 5068 06-23-17
202 dekki1234 9.1% 5070 06-23-17
203 Fozer 8.9% 5082 06-23-17
204 Colomb_30 8.8% 5085 06-23-17
205 Egor305 8.6% 5095 06-23-17
206 Regano1000 8.4% 5106 06-23-17
207 douglas 8.2% 5117 06-23-17
208 1stKirbyever 8.1% 5124 06-23-17
209 nuckrieg 8.0% 5128 06-23-17
210 TimTH 7.9% 5138 06-23-17
211 Brian_pso 7.7% 5145 06-23-17
212 wheatrich 7.7% 5147 06-23-17
213 Zip 7.6% 5150 06-23-17
214 Th4tN1nj4Turtl3 7.5% 5158 06-23-17
215 TakaRikka 7.5% 5159 06-23-17
216 niscool 7.3% 5169 06-23-17
217 Mariosonic15 7.2% 5177 06-23-17
218 ieatatsonic 6.9% 5194 06-23-17
218 Triseena 6.9% 5194 06-23-17
220 HermitHelmet 6.7% 5203 06-23-17
220 MStitomix 6.7% 5203 06-23-17
222 Artie 6.4% 5218 06-23-17
223 Got4n 6.4% 5219 06-23-17
224 Cort_pso 6.3% 5225 06-23-17
225 BlankTH 6.1% 5236 06-23-17
226 Jose_15 6.1% 5238 06-23-17
227 SuperSonicfan9595 5.8% 5253 06-23-17
228 Richied 5.8% 5255 06-23-17
229 Ace747 5.6% 5263 06-23-17
230 HHNNBBHHN 5.5% 5271 06-23-17
231 Aiko 5.3% 5279 06-23-17
232 Paixii 5.3% 5283 06-23-17
233 slade23 5.1% 5291 06-23-17
234 BallzeH 5.0% 5299 06-23-17
234 Mankster101 5.0% 5299 06-23-17
236 BecauseWarAnvil 4.9% 5302 06-23-17
237 FSSRandomvids 4.9% 5304 06-23-17
238 ArcticDragon 4.9% 5305 06-23-17
239 PsyBorg 4.8% 5307 06-23-17
240 Jamixesa 4.8% 5309 06-23-17
241 Nickson98 4.7% 5315 06-23-17
242 Crydio 4.5% 5323 06-23-17
243 TheUltraBlur 4.4% 5328 06-23-17
244 tal39h 4.3% 5335 06-23-17
245 MarewBFN 4.3% 5337 06-23-17
246 ALundstrom10 4.3% 5338 06-23-17
247 stanski 4.2% 5342 06-23-17
248 p0ker 4.0% 5354 06-23-17
249 knuckles_sonic8 4.0% 5355 06-23-17
250 Blue Infamy 3.9% 5358 06-23-17
251 ErrortheCucco 3.7% 5369 06-23-17
252 Rikum22 3.7% 5372 06-23-17
253 TheChaosEmeraIds 3.5% 5379 06-23-17
254 sonic1001 3.5% 5380 06-23-17
255 AJSIV 3.4% 5385 06-23-17
256 syco1098 3.4% 5387 06-23-17
257 Sonic the Hedgehod16 3.4% 5389 06-23-17
258 ASINISTERTACO 3.2% 5397 06-23-17
259 Calfd 3.2% 5400 06-23-17
260 sonicfan9 3.1% 5401 06-23-17
261 MK 3.0% 5407 06-23-17
262 themachoman202 2.9% 5412 06-23-17
263 Fivavoa 2.8% 5421 06-23-17
264 Mr. Jones 2.7% 5423 06-23-17
265 BlackArmsShadow 2.7% 5425 06-23-17
265 djmat 2.7% 5425 06-23-17
267 arcfx1985 2.7% 5426 06-23-17
268 ptorflaxendrosis 2.7% 5427 06-23-17
269 Sonique Hedgehog 2.7% 5428 06-23-17
270 FlandreScarlet9999vr 2.6% 5433 06-23-17
271 Zeldocto 2.5% 5436 06-23-17
272 BeeAwwb 2.5% 5438 06-23-17
272 KaM Mark MaK 2.5% 5438 06-23-17
274 ShadouZaHejjihoggu 2.3% 5446 06-23-17
275 darkstarblaze 2.3% 5448 06-23-17
276 Sarger001 2.2% 5451 06-23-17
277 Sonic The Star 2.2% 5455 06-23-17
278 darkersupershadic 2.2% 5456 06-23-17
279 SpiritDragon1995 2.1% 5457 06-23-17
280 Grady219 2.1% 5461 06-23-17
280 sonic29887 2.1% 5461 06-23-17
282 BioShadow 2.0% 5462 06-23-17
283 shadowblast63 Player Banned 2.0% 5466 06-23-17
284 Jawaah 1.9% 5468 06-23-17
285 Antek 1.9% 5471 06-23-17
286 Klaus 1.8% 5473 06-23-17
287 SkyBon 1.8% 5478 06-23-17
288 Shanekilz 1.5% 5495 06-23-17
289 isaihtb11 1.4% 5498 06-23-17
290 zaktu40 1.3% 5501 06-23-17
291 OhNoes! 1.3% 5502 06-23-17
292 gaara1234 1.3% 5505 06-23-17
293 S-MS32X-S 1.2% 5507 06-23-17
294 MastaToken 1.2% 5512 06-23-17
295 Mister_Slick 1.1% 5517 06-23-17
296 Sonic06Fan 1.0% 5520 06-23-17
297 Rush Hero 1.0% 5521 06-23-17
298 SonicMega167 0.9% 5526 06-23-17
299 oTaiIilLsS 0.9% 5528 06-23-17
300 gamed00d 0.8% 5529 06-23-17
300 SilverK 0.8% 5529 06-23-17
302 Heroes_Hater 0.7% 5537 06-23-17
303 Redd 0.7% 5539 06-23-17
304 Burningskull123 0.6% 5545 06-23-17
305 Sonicontherun 0.4% 5556 06-23-17
306 antiwwe 0.3% 5562 06-23-17
307 Iwannabelink 0.2% 5564 06-23-17
308 Genuine Hedgehog 0.2% 5565 06-23-17
308 SonataSpinDash 0.2% 5565 06-23-17
310 dragondragon18 0.1% 5569 06-23-17
311 SonicK100 0.1% 5571 06-23-17
312 Tyrouble 0.0% 5576 06-23-17
313 LancexExWx 0.0% 5579 06-23-17
313 neji_hyuuga 0.0% 5579 06-23-17
313 Over 0.0% 5579 06-23-17
313 sdj6707 Player Banned 0.0% 5579 06-23-17
313 Tran Sonic Fan Player Banned 0.0% 5579 06-23-17

This page is using the New Data Table System. [FUTURE]

Game ID: 3 | Category ID: 1
Hits: 8,625 | Hits This Month: 34 | DB Calls: 24 | Mem Usage: 5.47 MB | Time: 0.12s | Printable

The Sonic Center v3.9
Copyright 2003-2011 by The Sonic Center Team.